Time;durP1;ratioP1;P1;durP2;ratioP2;P2;SDS_P1;SDS_P2;PMS_P1;PMS_P2;Temp;Humidity;BMP_temperature;BMP_pressure;BME280_temperature;BME280_humidity;BME280_pressure;Samples;Min_cycle;Max_cycle;Signal;HPM_P1;HPM_P2
2022/05/03 00:00:03;;;;;;;;;;;21.80;38.30;;;;;;5070441;28;19912;-62
2022/05/03 00:02:35;;;;;;;;;;;21.70;38.20;;;;;;5072272;28;19908;-62
2022/05/03 00:05:07;;;;;;;;;;;21.70;38.40;;;;;;5054056;28;19913;-62
2022/05/03 00:07:44;;;;;;;;;;;21.70;38.30;;;;;;5072046;28;19908;-61
2022/05/03 00:10:17;;;;;;;;;;;21.70;38.20;;;;;;5051357;28;19920;-62
2022/05/03 00:13:02;;;;;;;;;;;21.70;38.30;;;;;;5050580;28;19909;-62
2022/05/03 00:15:28;;;;;;;;;;;21.70;38.40;;;;;;5051340;28;19913;-62
2022/05/03 00:17:53;;;;;;;;;;;21.70;38.30;;;;;;5050629;28;20281;-62
2022/05/03 00:20:19;;;;;;;;;;;21.70;38.30;;;;;;5050476;28;19944;-62
2022/05/03 00:22:44;;;;;;;;;;;21.70;38.30;;;;;;5050560;28;19912;-62
2022/05/03 00:25:10;;;;;;;;;;;21.70;38.30;;;;;;5051559;28;19913;-62
2022/05/03 00:27:35;;;;;;;;;;;21.70;38.40;;;;;;5051705;28;19924;-62
2022/05/03 00:30:00;;;;;;;;;;;21.70;38.30;;;;;;5049835;28;20357;-62
2022/05/03 00:32:26;;;;;;;;;;;21.70;38.30;;;;;;5050602;28;20257;-61
2022/05/03 00:34:51;;;;;;;;;;;21.70;38.40;;;;;;5050289;28;20329;-62
2022/05/03 00:37:17;;;;;;;;;;;21.70;38.30;;;;;;5050478;28;20364;-63
2022/05/03 00:39:43;;;;;;;;;;;21.70;38.30;;;;;;5069026;28;19991;-62
2022/05/03 00:42:14;;;;;;;;;;;21.70;38.30;;;;;;5071720;28;20257;-62
2022/05/03 00:45:00;;;;;;;;;;;21.70;38.70;;;;;;5070771;28;19924;-62
2022/05/03 00:47:38;;;;;;;;;;;21.60;38.20;;;;;;5071685;28;20035;-62
2022/05/03 00:50:07;;;;;;;;;;;21.60;38.20;;;;;;5071333;28;19909;-62
2022/05/03 00:52:49;;;;;;;;;;;21.60;38.20;;;;;;5071714;28;19916;-62
2022/05/03 00:55:21;;;;;;;;;;;21.60;38.20;;;;;;5069723;28;19916;-62
2022/05/03 00:58:01;;;;;;;;;;;21.60;38.20;;;;;;5071487;28;19958;-62
2022/05/03 01:00:26;;;;;;;;;;;21.60;38.20;;;;;;5069602;28;19955;-62
2022/05/03 01:03:09;;;;;;;;;;;21.60;38.30;;;;;;5070249;28;19940;-62
2022/05/03 01:05:38;;;;;;;;;;;21.60;38.30;;;;;;5063557;28;19927;-62
2022/05/03 01:08:09;;;;;;;;;;;21.60;38.30;;;;;;5055635;28;19952;-62
2022/05/03 01:11:13;;;;;;;;;;;21.60;38.20;;;;;;5073333;28;19912;-62
2022/05/03 01:13:42;;;;;;;;;;;21.60;38.30;;;;;;5012491;28;20294;-62
2022/05/03 01:16:16;;;;;;;;;;;21.60;38.40;;;;;;4996737;28;19961;-60
2022/05/03 01:18:51;;;;;;;;;;;21.50;38.20;;;;;;5040041;28;20296;-62
2022/05/03 01:21:18;;;;;;;;;;;21.60;38.40;;;;;;5074871;28;19909;-62
2022/05/03 01:24:06;;;;;;;;;;;21.50;38.20;;;;;;5074976;28;19919;-62
2022/05/03 01:26:31;;;;;;;;;;;21.50;38.30;;;;;;5074611;28;19951;-62
2022/05/03 01:29:19;;;;;;;;;;;21.50;38.30;;;;;;5074375;28;19943;-62
2022/05/03 01:31:44;;;;;;;;;;;21.60;38.40;;;;;;5074705;28;19920;-62
2022/05/03 01:34:12;;;;;;;;;;;21.50;38.30;;;;;;5073326;28;19913;-62
2022/05/03 01:36:50;;;;;;;;;;;21.50;38.20;;;;;;5073325;28;19909;-62
2022/05/03 01:39:26;;;;;;;;;;;21.50;38.20;;;;;;5073240;28;19908;-62
2022/05/03 01:41:54;;;;;;;;;;;21.50;38.30;;;;;;5074103;28;20382;-63
2022/05/03 01:44:26;;;;;;;;;;;21.50;38.40;;;;;;5074044;28;20396;-62
2022/05/03 01:47:00;;;;;;;;;;;21.50;38.30;;;;;;5073138;28;19919;-62
2022/05/03 01:52:17;;;;;;;;;;;21.50;38.30;;;;;;5073494;28;20350;-62
2022/05/03 01:54:49;;;;;;;;;;;21.50;38.20;;;;;;5068294;28;19920;-63
2022/05/03 01:57:28;;;;;;;;;;;21.50;38.30;;;;;;5054404;28;19913;-62
2022/05/03 02:00:03;;;;;;;;;;;21.50;38.20;;;;;;5053812;28;20270;-62
2022/05/03 02:02:39;;;;;;;;;;;21.50;38.20;;;;;;5054352;28;19913;-63
2022/05/03 02:05:07;;;;;;;;;;;21.50;38.30;;;;;;5052826;28;19919;-62
2022/05/03 02:07:36;;;;;;;;;;;21.50;38.30;;;;;;5053093;28;19909;-62
2022/05/03 02:10:03;;;;;;;;;;;21.50;38.20;;;;;;5053496;28;20022;-62
2022/05/03 02:12:28;;;;;;;;;;;21.50;38.40;;;;;;5054087;28;20230;-61
2022/05/03 02:14:55;;;;;;;;;;;21.50;38.30;;;;;;5053360;28;19923;-62
2022/05/03 02:17:36;;;;;;;;;;;21.50;38.30;;;;;;5053040;28;19909;-61
2022/05/03 02:20:10;;;;;;;;;;;21.40;38.20;;;;;;5035722;28;19913;-62
2022/05/03 02:22:35;;;;;;;;;;;21.40;38.20;;;;;;5060724;28;19908;-62
2022/05/03 02:25:17;;;;;;;;;;;21.40;38.30;;;;;;5053259;28;19915;-61
2022/05/03 02:27:47;;;;;;;;;;;21.40;38.10;;;;;;5052508;28;19909;-62
2022/05/03 02:30:13;;;;;;;;;;;21.40;38.10;;;;;;5052082;28;19931;-61
2022/05/03 02:32:38;;;;;;;;;;;21.40;38.10;;;;;;5053695;28;19917;-62
2022/05/03 02:35:04;;;;;;;;;;;21.40;38.20;;;;;;5053409;28;20344;-62
2022/05/03 02:37:30;;;;;;;;;;;21.40;38.20;;;;;;5053859;28;19916;-61
2022/05/03 02:39:59;;;;;;;;;;;21.40;38.30;;;;;;5072594;28;19999;-62
2022/05/03 02:42:25;;;;;;;;;;;21.40;38.30;;;;;;5072272;28;19952;-62
2022/05/03 02:44:52;;;;;;;;;;;21.40;38.10;;;;;;5072674;28;19963;-62
2022/05/03 02:47:28;;;;;;;;;;;21.40;38.30;;;;;;5073678;28;19908;-62
2022/05/03 02:50:02;;;;;;;;;;;21.40;38.30;;;;;;5073350;28;19913;-62
2022/05/03 02:52:29;;;;;;;;;;;21.30;38.20;;;;;;5072100;28;19915;-62
2022/05/03 02:54:57;;;;;;;;;;;21.30;38.10;;;;;;5071425;28;19917;-61
2022/05/03 02:57:41;;;;;;;;;;;21.30;38.30;;;;;;5073166;28;20011;-62
2022/05/03 03:02:59;;;;;;;;;;;21.30;38.30;;;;;;5073099;28;20390;-62
2022/05/03 03:05:25;;;;;;;;;;;21.30;38.30;;;;;;5072880;28;19916;-62
2022/05/03 03:07:51;;;;;;;;;;;21.30;38.30;;;;;;5071661;28;19908;-62
2022/05/03 03:10:19;;;;;;;;;;;21.30;38.20;;;;;;5072436;28;19909;-62
2022/05/03 03:12:57;;;;;;;;;;;21.30;38.30;;;;;;5071431;28;19908;-61
2022/05/03 03:15:26;;;;;;;;;;;21.30;38.30;;;;;;5072309;28;20407;-62
2022/05/03 03:17:52;;;;;;;;;;;21.20;38.40;;;;;;5056658;28;19935;-62
2022/05/03 03:20:19;;;;;;;;;;;21.20;38.40;;;;;;5052475;28;19909;-61
2022/05/03 03:22:45;;;;;;;;;;;21.20;38.20;;;;;;5051726;28;20361;-62
2022/05/03 03:25:11;;;;;;;;;;;21.20;38.30;;;;;;5052106;28;20003;-62
2022/05/03 03:27:37;;;;;;;;;;;21.20;38.30;;;;;;5052580;28;19909;-62
2022/05/03 03:30:04;;;;;;;;;;;21.20;38.40;;;;;;5051963;28;19909;-62
2022/05/03 03:32:29;;;;;;;;;;;21.20;38.50;;;;;;5051948;28;19935;-62
2022/05/03 03:34:56;;;;;;;;;;;21.20;38.50;;;;;;5052085;28;19912;-62
2022/05/03 03:37:22;;;;;;;;;;;21.20;38.50;;;;;;5052896;28;19950;-62
2022/05/03 03:39:48;;;;;;;;;;;21.20;38.40;;;;;;5070407;28;19908;-62
2022/05/03 03:42:13;;;;;;;;;;;21.20;38.40;;;;;;5072350;28;20305;-62
2022/05/03 03:44:38;;;;;;;;;;;21.10;38.40;;;;;;5071456;28;20338;-62
2022/05/03 03:47:04;;;;;;;;;;;21.10;38.40;;;;;;5072226;28;19919;-62
2022/05/03 03:49:29;;;;;;;;;;;21.20;38.60;;;;;;5072013;28;20315;-62
2022/05/03 03:51:55;;;;;;;;;;;21.10;38.50;;;;;;5070596;28;19994;-62
2022/05/03 03:54:21;;;;;;;;;;;21.10;38.50;;;;;;5068205;28;19981;-62
2022/05/03 03:56:46;;;;;;;;;;;21.10;38.50;;;;;;5051597;28;19909;-62
2022/05/03 03:59:12;;;;;;;;;;;21.00;38.60;;;;;;5051569;28;19912;-61
2022/05/03 04:01:38;;;;;;;;;;;21.00;38.60;;;;;;5050633;28;19948;-62
2022/05/03 04:04:03;;;;;;;;;;;21.00;38.60;;;;;;5051819;28;20014;-62
2022/05/03 04:06:28;;;;;;;;;;;21.00;38.70;;;;;;5052097;28;19913;-62
2022/05/03 04:08:54;;;;;;;;;;;20.90;38.80;;;;;;5062968;28;19912;-62
2022/05/03 04:11:19;;;;;;;;;;;20.90;38.90;;;;;;5071462;28;19995;-60
2022/05/03 04:13:45;;;;;;;;;;;20.90;38.90;;;;;;5071444;28;20377;-62
2022/05/03 04:16:10;;;;;;;;;;;20.90;38.70;;;;;;5071638;28;19908;-62
2022/05/03 04:18:45;;;;;;;;;;;20.90;38.80;;;;;;5071624;28;20307;-61
2022/05/03 04:21:17;;;;;;;;;;;20.90;38.80;;;;;;5070625;28;19916;-62
2022/05/03 04:23:43;;;;;;;;;;;20.90;38.90;;;;;;5071817;28;19986;-62
2022/05/03 04:26:11;;;;;;;;;;;20.80;39.00;;;;;;5070248;28;20356;-62
2022/05/03 04:28:38;;;;;;;;;;;20.70;39.00;;;;;;5054285;28;20332;-62
2022/05/03 04:31:03;;;;;;;;;;;20.80;39.10;;;;;;5051479;28;19955;-61
2022/05/03 04:33:29;;;;;;;;;;;20.70;39.00;;;;;;5066892;28;19921;-62
2022/05/03 04:35:54;;;;;;;;;;;20.70;39.20;;;;;;5051358;28;20015;-62
2022/05/03 04:38:19;;;;;;;;;;;20.60;39.30;;;;;;5057879;28;19908;-62
2022/05/03 04:40:45;;;;;;;;;;;20.70;39.30;;;;;;5071124;28;19916;-62
2022/05/03 04:43:10;;;;;;;;;;;20.70;39.30;;;;;;5071523;28;19909;-62
2022/05/03 04:45:36;;;;;;;;;;;20.70;39.20;;;;;;5074688;28;19924;-62
2022/05/03 04:48:01;;;;;;;;;;;20.70;39.20;;;;;;5075337;28;19997;-62
2022/05/03 04:50:27;;;;;;;;;;;20.70;39.20;;;;;;5075473;28;19915;-62
2022/05/03 04:52:52;;;;;;;;;;;20.70;39.20;;;;;;5075403;28;20009;-62
2022/05/03 04:55:18;;;;;;;;;;;20.70;39.30;;;;;;5073549;28;19919;-62
2022/05/03 04:57:43;;;;;;;;;;;20.70;39.30;;;;;;5075443;28;19935;-62
2022/05/03 05:00:09;;;;;;;;;;;20.60;39.30;;;;;;5074763;28;19912;-62
2022/05/03 05:02:34;;;;;;;;;;;20.60;39.20;;;;;;5075243;28;19930;-62
2022/05/03 05:05:00;;;;;;;;;;;20.70;39.20;;;;;;5075228;28;19909;-62
2022/05/03 05:07:25;;;;;;;;;;;20.70;39.20;;;;;;5075181;28;19915;-62
2022/05/03 05:12:35;;;;;;;;;;;20.70;39.20;;;;;;5075166;28;19920;-62
2022/05/03 05:15:00;;;;;;;;;;;20.70;39.20;;;;;;5073199;28;20249;-61
2022/05/03 05:17:26;;;;;;;;;;;20.60;39.30;;;;;;5062766;28;19920;-62
2022/05/03 05:19:51;;;;;;;;;;;20.60;39.30;;;;;;5070088;28;19909;-62
2022/05/03 05:22:16;;;;;;;;;;;20.60;39.30;;;;;;5054872;28;19909;-62
2022/05/03 05:24:42;;;;;;;;;;;20.70;39.30;;;;;;5054253;28;19912;-62
2022/05/03 05:27:07;;;;;;;;;;;20.70;39.20;;;;;;5054796;28;19999;-62
2022/05/03 05:29:33;;;;;;;;;;;20.70;39.10;;;;;;5054315;28;19909;-62
2022/05/03 05:31:58;;;;;;;;;;;20.70;39.10;;;;;;5054561;28;19912;-61
2022/05/03 05:34:24;;;;;;;;;;;20.70;39.20;;;;;;5054371;28;19925;-62
2022/05/03 05:36:49;;;;;;;;;;;20.70;39.20;;;;;;5054588;28;20377;-62
2022/05/03 05:39:15;;;;;;;;;;;20.70;39.20;;;;;;5068664;28;20281;-62
2022/05/03 05:41:40;;;;;;;;;;;20.60;39.20;;;;;;5074003;28;20061;-62
2022/05/03 05:44:06;;;;;;;;;;;20.60;39.10;;;;;;5073765;28;19932;-62
2022/05/03 05:46:31;;;;;;;;;;;20.60;39.10;;;;;;5074275;28;19912;-62
2022/05/03 05:48:56;;;;;;;;;;;20.70;39.20;;;;;;5074387;28;19999;-62
2022/05/03 05:51:22;;;;;;;;;;;20.60;39.10;;;;;;5074259;28;19912;-62
2022/05/03 05:53:47;;;;;;;;;;;20.70;39.30;;;;;;5074074;28;19912;-62
2022/05/03 05:56:14;;;;;;;;;;;20.60;39.20;;;;;;5055559;28;20369;-62
2022/05/03 05:58:39;;;;;;;;;;;20.60;39.20;;;;;;5054058;28;19921;-62
2022/05/03 06:01:05;;;;;;;;;;;20.60;39.20;;;;;;5052815;28;20369;-62
2022/05/03 06:03:31;;;;;;;;;;;20.70;39.20;;;;;;5053936;28;19916;-62
2022/05/03 06:05:56;;;;;;;;;;;20.60;39.20;;;;;;5054040;28;19944;-62
2022/05/03 06:08:22;;;;;;;;;;;20.60;39.30;;;;;;5060790;28;19912;-62
2022/05/03 06:10:49;;;;;;;;;;;20.60;39.20;;;;;;5073452;28;19999;-61
2022/05/03 06:13:15;;;;;;;;;;;20.60;39.20;;;;;;5074095;28;19913;-62
2022/05/03 06:15:41;;;;;;;;;;;20.60;39.20;;;;;;5073759;28;19912;-62
2022/05/03 06:18:08;;;;;;;;;;;20.60;39.20;;;;;;5073807;28;19977;-61
2022/05/03 06:20:33;;;;;;;;;;;20.60;39.30;;;;;;5073673;28;19908;-62
2022/05/03 06:22:58;;;;;;;;;;;20.60;39.30;;;;;;5073918;28;19913;-62
2022/05/03 06:25:24;;;;;;;;;;;20.60;39.20;;;;;;5073431;28;19919;-62
2022/05/03 06:27:50;;;;;;;;;;;20.60;39.30;;;;;;5072378;28;20014;-62
2022/05/03 06:30:15;;;;;;;;;;;20.50;39.30;;;;;;5071978;28;19912;-62
2022/05/03 06:32:43;;;;;;;;;;;20.50;39.40;;;;;;5073814;28;19908;-61
2022/05/03 06:35:09;;;;;;;;;;;20.50;39.40;;;;;;5073058;28;19917;-62
2022/05/03 06:37:36;;;;;;;;;;;20.50;39.40;;;;;;5073457;28;20275;-62
2022/05/03 06:40:01;;;;;;;;;;;20.60;39.50;;;;;;5052900;28;19992;-62
2022/05/03 06:42:27;;;;;;;;;;;20.60;39.40;;;;;;5053404;28;20416;-62
2022/05/03 06:44:52;;;;;;;;;;;20.60;39.40;;;;;;5052423;28;19924;-61
2022/05/03 06:47:18;;;;;;;;;;;20.60;39.40;;;;;;5053238;28;19935;-62
2022/05/03 06:49:44;;;;;;;;;;;20.60;39.40;;;;;;5053429;28;20444;-62
2022/05/03 06:52:09;;;;;;;;;;;20.60;39.40;;;;;;5053303;28;20364;-62
2022/05/03 06:54:35;;;;;;;;;;;20.60;39.30;;;;;;5052766;28;20284;-62
2022/05/03 06:57:00;;;;;;;;;;;20.60;39.30;;;;;;5053196;28;19909;-62
2022/05/03 06:59:25;;;;;;;;;;;20.60;39.40;;;;;;5052790;28;19909;-62
2022/05/03 07:01:51;;;;;;;;;;;20.50;39.40;;;;;;5053036;28;20380;-62
2022/05/03 07:04:16;;;;;;;;;;;20.50;39.40;;;;;;5052910;28;20322;-62
2022/05/03 07:06:42;;;;;;;;;;;20.50;39.50;;;;;;5051958;28;20265;-62
2022/05/03 07:09:07;;;;;;;;;;;20.40;39.40;;;;;;5066056;28;19931;-62
2022/05/03 07:11:33;;;;;;;;;;;20.40;39.60;;;;;;5071319;28;19915;-62
2022/05/03 07:13:58;;;;;;;;;;;20.40;39.60;;;;;;5072332;28;20311;-62
2022/05/03 07:16:24;;;;;;;;;;;20.50;39.60;;;;;;5069095;28;20392;-62
2022/05/03 07:24:17;;;;;;;;;;;20.50;39.50;;;;;;5051529;28;19977;-62
2022/05/03 07:26:43;;;;;;;;;;;20.50;39.50;;;;;;5050858;28;20319;-62
2022/05/03 07:29:09;;;;;;;;;;;20.60;39.60;;;;;;5052178;28;19913;-62
2022/05/03 07:31:34;;;;;;;;;;;20.50;39.40;;;;;;5052369;28;20035;-63
2022/05/03 07:34:00;;;;;;;;;;;20.50;39.40;;;;;;5052147;28;20281;-61
2022/05/03 07:36:27;;;;;;;;;;;20.50;39.40;;;;;;5052307;28;19975;-61
2022/05/03 07:38:52;;;;;;;;;;;20.50;39.50;;;;;;5062964;28;20380;-62
2022/05/03 07:41:18;;;;;;;;;;;20.50;39.70;;;;;;5071805;28;19916;-62
2022/05/03 07:43:43;;;;;;;;;;;20.50;39.70;;;;;;5071830;28;19919;-62
2022/05/03 07:46:09;;;;;;;;;;;20.50;39.60;;;;;;5071734;28;19978;-62
2022/05/03 07:48:35;;;;;;;;;;;20.50;39.70;;;;;;5072104;28;19945;-62
2022/05/03 07:51:00;;;;;;;;;;;20.50;39.70;;;;;;5070506;28;19913;-61
2022/05/03 07:53:25;;;;;;;;;;;20.50;39.70;;;;;;5072028;28;19912;-62
2022/05/03 07:55:51;;;;;;;;;;;20.40;39.80;;;;;;5071505;28;19908;-62
2022/05/03 07:58:18;;;;;;;;;;;20.40;39.90;;;;;;5071949;28;19909;-61
2022/05/03 08:00:43;;;;;;;;;;;20.40;39.80;;;;;;5071595;28;20372;-61
2022/05/03 08:03:09;;;;;;;;;;;20.40;39.80;;;;;;5071939;28;20323;-62
2022/05/03 08:05:35;;;;;;;;;;;20.40;39.80;;;;;;5069278;28;20340;-62
2022/05/03 08:08:00;;;;;;;;;;;20.40;39.70;;;;;;5055437;28;20296;-62
2022/05/03 08:10:25;;;;;;;;;;;20.50;39.90;;;;;;5071214;28;19908;-62
2022/05/03 08:12:51;;;;;;;;;;;20.50;39.70;;;;;;5070377;28;19951;-62
2022/05/03 08:15:17;;;;;;;;;;;20.50;39.80;;;;;;5071146;28;19913;-62
2022/05/03 08:17:43;;;;;;;;;;;20.50;39.70;;;;;;5071466;28;20432;-62
2022/05/03 08:20:08;;;;;;;;;;;20.50;39.70;;;;;;5071681;28;19948;-62
2022/05/03 08:22:34;;;;;;;;;;;20.50;39.80;;;;;;5071759;28;19921;-61
2022/05/03 08:25:00;;;;;;;;;;;20.50;39.90;;;;;;5071132;28;19916;-62
2022/05/03 08:27:25;;;;;;;;;;;20.40;39.80;;;;;;5071744;28;19912;-62
2022/05/03 08:29:51;;;;;;;;;;;20.40;39.90;;;;;;5071061;28;19909;-62
2022/05/03 08:32:16;;;;;;;;;;;20.40;39.90;;;;;;5071655;28;19913;-62
2022/05/03 08:34:42;;;;;;;;;;;20.40;40.00;;;;;;5071143;28;20003;-62
2022/05/03 08:42:36;;;;;;;;;;;20.40;39.90;;;;;;5071483;28;19919;-62
2022/05/03 08:45:01;;;;;;;;;;;20.50;39.90;;;;;;5056749;28;19920;-62
2022/05/03 08:47:28;;;;;;;;;;;20.50;39.90;;;;;;5051420;28;19913;-62
2022/05/03 08:50:01;;;;;;;;;;;20.50;39.90;;;;;;5051076;28;20007;-63
2022/05/03 08:52:28;;;;;;;;;;;20.50;40.00;;;;;;5051305;28;19913;-61
2022/05/03 08:54:54;;;;;;;;;;;20.40;40.00;;;;;;5051102;28;19967;-62
2022/05/03 08:57:20;;;;;;;;;;;20.50;40.00;;;;;;5051283;28;20384;-62
2022/05/03 08:59:47;;;;;;;;;;;20.50;39.90;;;;;;5049444;28;19940;-61
2022/05/03 09:02:13;;;;;;;;;;;20.50;39.90;;;;;;5050025;28;20339;-62
2022/05/03 09:04:38;;;;;;;;;;;20.50;39.90;;;;;;5049931;28;20024;-62
2022/05/03 09:07:20;;;;;;;;;;;20.50;39.90;;;;;;5050084;28;19912;-62
2022/05/03 09:09:46;;;;;;;;;;;20.60;39.90;;;;;;5068839;28;19916;-62
2022/05/03 09:12:21;;;;;;;;;;;20.60;40.00;;;;;;5071135;28;19953;-62
2022/05/03 09:14:46;;;;;;;;;;;20.50;40.00;;;;;;5069199;28;19948;-62
2022/05/03 09:17:12;;;;;;;;;;;20.50;40.00;;;;;;5061140;28;19960;-62
2022/05/03 09:19:37;;;;;;;;;;;20.60;40.00;;;;;;5051016;28;19923;-62
2022/05/03 09:24:53;;;;;;;;;;;20.50;40.20;;;;;;5050682;28;19931;-62
2022/05/03 09:27:19;;;;;;;;;;;20.40;40.20;;;;;;5049860;28;20320;-62
2022/05/03 09:30:03;;;;;;;;;;;20.40;40.30;;;;;;5051356;28;20007;-62
2022/05/03 09:32:55;;;;;;;;;;;20.50;40.20;;;;;;5054694;28;19913;-61
2022/05/03 09:35:35;;;;;;;;;;;20.50;40.20;;;;;;5052284;28;19927;-61
2022/05/03 09:38:03;;;;;;;;;;;20.50;40.20;;;;;;5058343;28;19908;-61
2022/05/03 09:40:35;;;;;;;;;;;20.50;40.30;;;;;;5072756;28;19909;-62
2022/05/03 09:43:00;;;;;;;;;;;20.40;40.20;;;;;;5074307;28;19934;-62
2022/05/03 09:45:26;;;;;;;;;;;20.40;40.30;;;;;;5073863;28;20020;-62
2022/05/03 09:47:52;;;;;;;;;;;20.40;40.30;;;;;;5072939;28;19909;-61
2022/05/03 09:50:44;;;;;;;;;;;20.40;40.30;;;;;;5074517;28;19916;-62
2022/05/03 09:53:16;;;;;;;;;;;20.50;40.50;;;;;;5071121;28;19916;-61
2022/05/03 09:55:42;;;;;;;;;;;20.40;40.50;;;;;;5073728;28;19930;-62
2022/05/03 09:58:09;;;;;;;;;;;20.40;40.40;;;;;;5072946;28;20334;-62
2022/05/03 10:00:35;;;;;;;;;;;20.40;40.40;;;;;;5073706;28;19912;-61
2022/05/03 10:03:01;;;;;;;;;;;20.50;40.40;;;;;;5074126;28;19999;-62
2022/05/03 10:05:27;;;;;;;;;;;20.50;40.30;;;;;;5073578;28;20004;-62
2022/05/03 10:07:55;;;;;;;;;;;20.50;40.40;;;;;;5056645;28;19952;-62
2022/05/03 10:10:21;;;;;;;;;;;20.60;40.50;;;;;;5072250;28;19909;-62
2022/05/03 10:12:47;;;;;;;;;;;20.60;40.30;;;;;;5072720;28;19915;-62
2022/05/03 10:15:13;;;;;;;;;;;20.60;40.50;;;;;;5072388;28;19947;-62
2022/05/03 10:20:42;;;;;;;;;;;20.50;40.40;;;;;;5080491;28;19920;-62
2022/05/03 10:23:23;;;;;;;;;;;20.50;40.50;;;;;;5058676;28;19944;-62
2022/05/03 10:26:01;;;;;;;;;;;20.50;40.30;;;;;;5073223;28;19931;-62
2022/05/03 10:28:45;;;;;;;;;;;20.60;40.30;;;;;;5073637;28;20406;-62
2022/05/03 10:31:12;;;;;;;;;;;20.60;40.20;;;;;;5073455;28;19908;-61
2022/05/03 10:33:38;;;;;;;;;;;20.60;40.20;;;;;;5072403;28;19919;-62
2022/05/03 10:36:23;;;;;;;;;;;20.70;40.20;;;;;;5071928;28;20280;-62
2022/05/03 10:38:49;;;;;;;;;;;20.60;40.20;;;;;;5073239;28;19912;-62
2022/05/03 10:41:22;;;;;;;;;;;20.60;40.40;;;;;;5071919;28;20387;-62
2022/05/03 10:43:47;;;;;;;;;;;20.60;40.30;;;;;;5067797;28;19963;-62
2022/05/03 10:46:13;;;;;;;;;;;20.60;40.10;;;;;;5052908;28;19920;-62
2022/05/03 10:48:43;;;;;;;;;;;20.60;40.30;;;;;;5068631;28;19978;-64
2022/05/03 10:51:09;;;;;;;;;;;20.60;40.20;;;;;;5053419;28;19909;-62
2022/05/03 10:53:41;;;;;;;;;;;20.60;40.20;;;;;;5053163;28;19916;-62
2022/05/03 10:56:12;;;;;;;;;;;20.60;40.20;;;;;;5052667;28;19916;-62
2022/05/03 10:58:39;;;;;;;;;;;20.60;40.10;;;;;;5051471;28;20008;-62
2022/05/03 11:01:05;;;;;;;;;;;20.60;40.20;;;;;;5053162;28;19920;-62
2022/05/03 11:03:31;;;;;;;;;;;20.60;40.30;;;;;;5053044;28;20419;-61
2022/05/03 11:06:15;;;;;;;;;;;20.60;40.30;;;;;;5052804;28;19909;-61
2022/05/03 11:11:44;;;;;;;;;;;20.60;40.20;;;;;;5062775;28;19981;-61
2022/05/03 11:14:16;;;;;;;;;;;20.50;40.40;;;;;;5072281;28;19962;-62
2022/05/03 11:17:02;;;;;;;;;;;20.40;40.50;;;;;;5072749;28;19908;-61
2022/05/03 11:19:28;;;;;;;;;;;20.50;40.60;;;;;;5062242;28;19998;-62
2022/05/03 11:21:55;;;;;;;;;;;20.50;40.90;;;;;;5072208;28;19913;-61
2022/05/03 11:24:21;;;;;;;;;;;20.50;40.90;;;;;;5071213;28;19908;-62
2022/05/03 11:26:47;;;;;;;;;;;20.50;41.00;;;;;;5071882;28;19924;-61
2022/05/03 11:29:12;;;;;;;;;;;20.40;40.90;;;;;;5071835;28;20316;-62
2022/05/03 11:31:38;;;;;;;;;;;20.40;41.00;;;;;;5072328;28;19915;-62
2022/05/03 11:34:06;;;;;;;;;;;20.50;40.80;;;;;;5059685;28;19920;-62
2022/05/03 11:36:31;;;;;;;;;;;20.50;40.60;;;;;;5052451;28;20424;-62
2022/05/03 11:38:57;;;;;;;;;;;20.60;40.70;;;;;;5063610;28;19958;-62
2022/05/03 11:41:23;;;;;;;;;;;20.60;40.80;;;;;;5070592;28;20399;-62
2022/05/03 11:43:49;;;;;;;;;;;20.50;40.70;;;;;;5071684;28;19909;-62
2022/05/03 11:46:18;;;;;;;;;;;20.50;40.90;;;;;;5071902;28;19927;-62
2022/05/03 11:48:43;;;;;;;;;;;20.50;40.90;;;;;;5071886;28;19913;-62
2022/05/03 11:56:37;;;;;;;;;;;20.40;41.10;;;;;;5071583;28;19916;-62
2022/05/03 11:59:03;;;;;;;;;;;20.50;41.10;;;;;;5071569;28;19913;-62
2022/05/03 12:01:32;;;;;;;;;;;20.40;41.10;;;;;;5070315;28;19920;-62
2022/05/03 12:03:59;;;;;;;;;;;20.50;41.00;;;;;;5071832;28;19908;-62
2022/05/03 12:06:32;;;;;;;;;;;20.50;41.20;;;;;;5066938;28;19920;-62
2022/05/03 12:08:57;;;;;;;;;;;20.40;41.10;;;;;;5063177;28;19916;-62
2022/05/03 12:11:26;;;;;;;;;;;20.40;41.20;;;;;;5070196;28;19913;-62
2022/05/03 12:13:52;;;;;;;;;;;20.40;41.20;;;;;;5071402;28;19916;-62
2022/05/03 12:16:24;;;;;;;;;;;20.50;41.10;;;;;;5070301;28;19908;-62
2022/05/03 12:18:51;;;;;;;;;;;20.50;41.10;;;;;;5071634;28;20303;-62
2022/05/03 12:21:17;;;;;;;;;;;20.50;41.10;;;;;;5071700;28;19947;-62
2022/05/03 12:23:44;;;;;;;;;;;20.50;41.20;;;;;;5070323;28;19912;-62
2022/05/03 12:26:14;;;;;;;;;;;20.50;41.20;;;;;;5071309;28;20361;-62
2022/05/03 12:28:40;;;;;;;;;;;20.50;41.30;;;;;;5071263;28;19916;-61
2022/05/03 12:31:06;;;;;;;;;;;20.40;41.20;;;;;;5071548;28;19962;-62
2022/05/03 12:33:32;;;;;;;;;;;20.40;41.10;;;;;;5071477;28;19912;-62
2022/05/03 12:35:58;;;;;;;;;;;20.50;41.30;;;;;;5070198;28;19916;-62
2022/05/03 12:38:24;;;;;;;;;;;20.50;41.40;;;;;;5070398;28;19912;-62
2022/05/03 12:40:56;;;;;;;;;;;20.40;41.50;;;;;;5071203;28;19912;-62
2022/05/03 12:43:23;;;;;;;;;;;20.40;41.50;;;;;;5070168;28;19919;-62
2022/05/03 12:46:01;;;;;;;;;;;20.50;41.40;;;;;;5070872;28;19924;-61
2022/05/03 12:48:27;;;;;;;;;;;20.50;41.30;;;;;;5053452;28;20003;-62
2022/05/03 12:50:53;;;;;;;;;;;20.50;41.20;;;;;;5071277;28;20007;-62
2022/05/03 12:53:29;;;;;;;;;;;20.50;41.40;;;;;;5070051;28;19908;-62
2022/05/03 12:55:55;;;;;;;;;;;20.50;41.30;;;;;;5061084;28;20411;-62
2022/05/03 12:58:26;;;;;;;;;;;20.60;41.20;;;;;;5051243;28;19909;-61
2022/05/03 13:00:53;;;;;;;;;;;20.60;41.30;;;;;;5050866;28;19999;-62
2022/05/03 13:03:19;;;;;;;;;;;20.60;41.30;;;;;;5050378;28;20269;-62
2022/05/03 13:05:45;;;;;;;;;;;20.50;41.40;;;;;;5053661;28;19913;-62
2022/05/03 13:08:10;;;;;;;;;;;20.50;41.20;;;;;;5060233;28;20383;-61
2022/05/03 13:10:37;;;;;;;;;;;20.50;41.30;;;;;;5074766;28;20407;-62
2022/05/03 13:13:03;;;;;;;;;;;20.50;41.30;;;;;;5073843;28;19908;-62
2022/05/03 13:15:28;;;;;;;;;;;20.50;41.20;;;;;;5074473;28;20008;-61
2022/05/03 13:17:53;;;;;;;;;;;20.50;41.20;;;;;;5074934;28;19966;-62
2022/05/03 13:20:20;;;;;;;;;;;20.50;41.20;;;;;;5074798;28;20023;-62
2022/05/03 13:22:46;;;;;;;;;;;20.50;41.40;;;;;;5074894;28;19909;-62
2022/05/03 13:25:11;;;;;;;;;;;20.50;41.40;;;;;;5074182;28;19916;-62
2022/05/03 13:27:36;;;;;;;;;;;20.50;41.50;;;;;;5074770;28;19912;-62
2022/05/03 13:30:02;;;;;;;;;;;20.50;41.40;;;;;;5074193;28;19915;-62
2022/05/03 13:32:28;;;;;;;;;;;20.50;41.30;;;;;;5074874;28;19908;-64
2022/05/03 13:34:54;;;;;;;;;;;20.50;41.50;;;;;;5069736;28;20253;-62
2022/05/03 13:42:47;;;;;;;;;;;20.60;41.50;;;;;;5054672;28;19916;-62
2022/05/03 13:45:13;;;;;;;;;;;20.60;41.40;;;;;;5053929;28;19924;-62
2022/05/03 13:47:38;;;;;;;;;;;20.60;41.30;;;;;;5054520;28;19908;-62
2022/05/03 13:50:04;;;;;;;;;;;20.70;41.40;;;;;;5054071;28;19917;-62
2022/05/03 13:52:32;;;;;;;;;;;20.70;41.40;;;;;;5054666;28;19913;-62
2022/05/03 13:54:58;;;;;;;;;;;20.70;41.30;;;;;;5053824;28;19984;-62
2022/05/03 13:57:24;;;;;;;;;;;20.70;41.20;;;;;;5052962;28;19913;-61
2022/05/03 13:59:49;;;;;;;;;;;20.70;41.30;;;;;;5053635;28;20292;-61
2022/05/03 14:02:15;;;;;;;;;;;20.70;41.20;;;;;;5054328;28;20361;-62
2022/05/03 14:04:40;;;;;;;;;;;20.70;41.30;;;;;;5054008;28;20003;-61
2022/05/03 14:07:07;;;;;;;;;;;20.70;41.30;;;;;;5054116;28;20372;-62
2022/05/03 14:09:32;;;;;;;;;;;20.70;41.20;;;;;;5070499;28;19931;-62
2022/05/03 14:11:58;;;;;;;;;;;20.70;41.20;;;;;;5073861;28;19909;-62
2022/05/03 14:14:23;;;;;;;;;;;20.80;41.10;;;;;;5073920;28;20300;-62
2022/05/03 14:16:49;;;;;;;;;;;20.80;41.10;;;;;;5073571;28;19912;-62
2022/05/03 14:19:15;;;;;;;;;;;20.80;41.10;;;;;;5073953;28;19912;-62
2022/05/03 14:21:41;;;;;;;;;;;20.80;41.00;;;;;;5073889;28;19908;-62
2022/05/03 14:24:06;;;;;;;;;;;20.80;41.00;;;;;;5073812;28;19915;-62
2022/05/03 14:26:32;;;;;;;;;;;20.80;40.90;;;;;;5072477;28;20010;-61
2022/05/03 14:28:58;;;;;;;;;;;20.80;41.00;;;;;;5073388;28;19909;-61
2022/05/03 14:31:25;;;;;;;;;;;20.80;41.00;;;;;;5073750;28;19913;-62
2022/05/03 14:33:51;;;;;;;;;;;20.80;41.20;;;;;;5073647;28;19913;-61
2022/05/03 14:36:17;;;;;;;;;;;20.80;41.00;;;;;;5073546;28;19912;-62
2022/05/03 14:38:42;;;;;;;;;;;20.80;41.00;;;;;;5073513;28;20327;-62
2022/05/03 14:41:08;;;;;;;;;;;20.80;41.00;;;;;;5073157;28;19909;-61
2022/05/03 14:43:33;;;;;;;;;;;20.80;41.00;;;;;;5055148;28;20064;-62
2022/05/03 14:45:58;;;;;;;;;;;20.80;41.00;;;;;;5073596;28;20606;-63
2022/05/03 14:48:24;;;;;;;;;;;20.90;41.00;;;;;;5073478;28;19913;-62
2022/05/03 14:50:49;;;;;;;;;;;20.90;41.00;;;;;;5073049;28;19909;-62
2022/05/03 14:53:15;;;;;;;;;;;20.90;41.10;;;;;;5073343;28;19916;-62
2022/05/03 15:02:51;;;;;;;;;;;20.90;41.10;;;;;;5065924;28;19913;-62
2022/05/03 15:03:55;;;;;;;;;;;20.90;41.10;;;;;;5052986;28;19939;-62